Route Details

Aircraft Information
Group: Large Widebodies
Types: B744, MD11
Route Data
Distance: 3631nm
Duration: 8h 09m
Origin METAR: SBGL 072344Z 27004KT 4000 -RA BR SCT006 BKN040 23/22 Q1014 RERA
Dest. METAR: KMIA 072253Z COR 09013G17KT 10SM SCT040 SCT250 23/14 A3022 RMK AO2 SLP232 T02330144 $
Freight Data
(for Feb 7, 2023)
Load Factor:
40%
Manifested Cargo: 90,291lbs
Financial History
Total Freight: 346,101lbs
Average Load: 0lbs/flt
Fuel Used: 658,358lbs
Avg. Fuel Used: 0lbs/flt
Fuel Expense: $363,771
Avg. Fuel Expense: $0
Avg. Fuel Cost: $0/lbs
Total Gross Income: $1,079,835
Pilot Pay: $717
Total Expenses: $225,803
Total Revenue: $480,298
Average Revenue: $0

Capitol Logistics 779




SBGL
Rio Galeão – Tom Jobim International Airport
Rio De Janeiro, BR
KMIA
Miami International Airport
Miami, US